Time;durP1;ratioP1;P1;durP2;ratioP2;P2;SDS_P1;SDS_P2;PMS_P1;PMS_P2;Temp;Humidity;BMP_temperature;BMP_pressure;BME280_temperature;BME280_humidity;BME280_pressure;Samples;Min_cycle;Max_cycle;Signal;HPM_P1;HPM_P2
2022/02/24 00:00:08;;;;;;;14.00;3.40;;;;;;;14.63;71.65;101499.44;4906588;29;20040;-48
2022/02/24 00:02:43;;;;;;;12.43;4.05;;;;;;;14.53;73.60;101500.91;4911557;29;20044;-49
2022/02/24 00:05:11;;;;;;;13.45;3.20;;;;;;;14.41;73.58;101501.53;4914793;29;20032;-48
2022/02/24 00:07:36;;;;;;;11.48;2.97;;;;;;;14.81;67.44;101497.22;4920052;29;20036;-48
2022/02/24 00:10:04;;;;;;;28.03;4.97;;;;;;;14.42;69.05;101492.41;4906001;29;20066;-52
2022/02/24 00:12:31;;;;;;;16.40;3.20;;;;;;;14.16;71.01;101491.34;4921036;29;20028;-54
2022/02/24 00:14:58;;;;;;;16.23;3.63;;;;;;;14.66;69.73;101487.47;4909299;29;20048;-51
2022/02/24 00:17:23;;;;;;;16.15;3.75;;;;;;;14.39;69.53;101481.22;4900020;29;20029;-54
2022/02/24 00:19:48;;;;;;;13.83;3.43;;;;;;;14.59;67.53;101483.94;4904882;29;20143;-53
2022/02/24 00:22:14;;;;;;;15.47;3.20;;;;;;;15.08;63.18;101481.84;4914813;29;20041;-54
2022/02/24 00:24:40;;;;;;;15.13;3.45;;;;;;;14.86;64.50;101465.13;4894155;29;20033;-54
2022/02/24 00:27:06;;;;;;;20.13;5.50;;;;;;;15.05;64.28;101466.97;4892088;29;20052;-51
2022/02/24 00:29:32;;;;;;;13.02;3.58;;;;;;;15.10;64.83;101470.88;4917185;29;20047;-53
2022/02/24 00:31:58;;;;;;;18.73;4.22;;;;;;;15.15;63.58;101460.28;4904983;29;20028;-51
2022/02/24 00:34:24;;;;;;;14.40;3.20;;;;;;;15.10;64.41;101460.09;4913520;29;20052;-55
2022/02/24 00:36:53;;;;;;;10.57;3.80;;;;;;;14.83;65.64;101458.28;4911113;29;20044;-53
2022/02/24 00:39:20;;;;;;;16.23;3.30;;;;;;;14.53;67.55;101457.84;4906151;29;20051;-54
2022/02/24 00:41:47;;;;;;;15.23;3.47;;;;;;;14.59;67.50;101462.41;4916509;29;20036;-53
2022/02/24 00:44:13;;;;;;;25.05;4.60;;;;;;;14.77;67.07;101473.41;4906735;29;20050;-52
2022/02/24 00:46:41;;;;;;;13.25;3.13;;;;;;;14.26;70.71;101458.66;4911241;29;20044;-49
2022/02/24 00:49:07;;;;;;;16.00;4.00;;;;;;;14.14;73.51;101461.13;4913314;29;20037;-50
2022/02/24 00:51:34;;;;;;;19.25;4.00;;;;;;;14.51;71.16;101454.53;4903153;29;20052;-51
2022/02/24 00:54:00;;;;;;;16.50;3.50;;;;;;;14.77;68.02;101446.50;4915918;29;20109;-50
2022/02/24 00:56:26;;;;;;;11.80;4.10;;;;;;;14.55;71.16;101442.34;4907944;29;20040;-52
2022/02/24 00:58:51;;;;;;;12.87;3.70;;;;;;;14.74;71.36;101438.00;4909826;29;20047;-50
2022/02/24 01:01:17;;;;;;;13.77;4.30;;;;;;;14.27;75.81;101433.41;4897443;29;20037;-52
2022/02/24 01:03:42;;;;;;;15.83;4.13;;;;;;;14.62;75.29;101445.84;4904153;29;20064;-52
2022/02/24 01:06:08;;;;;;;17.58;4.15;;;;;;;14.27;79.56;101433.41;4914845;29;20033;-52
2022/02/24 01:08:34;;;;;;;15.87;4.57;;;;;;;14.37;80.34;101418.72;4908461;29;20042;-49
2022/02/24 01:10:59;;;;;;;20.20;5.73;;;;;;;14.55;79.87;101418.09;4908275;29;20120;-55
2022/02/24 01:13:24;;;;;;;18.83;5.23;;;;;;;14.78;76.94;101409.63;4915080;29;20032;-53
2022/02/24 01:15:50;;;;;;;16.77;5.57;;;;;;;14.37;81.88;101406.09;4902833;29;20048;-52
2022/02/24 01:18:16;;;;;;;17.50;5.50;;;;;;;14.47;82.93;101405.69;4918905;29;20037;-53
2022/02/24 01:20:41;;;;;;;17.90;5.63;;;;;;;14.42;82.74;101394.72;4910712;29;20126;-53
2022/02/24 01:23:07;;;;;;;19.77;5.07;;;;;;;14.13;82.37;101397.59;4912754;29;20122;-54
2022/02/24 01:25:33;;;;;;;15.50;3.80;;;;;;;14.16;81.84;101378.34;4919090;29;20275;-53
2022/02/24 01:27:59;;;;;;;14.75;4.70;;;;;;;14.22;81.41;101386.63;4903467;29;20046;-54
2022/02/24 01:30:25;;;;;;;15.68;4.55;;;;;;;14.13;81.05;101373.41;4919146;29;20036;-54
2022/02/24 01:32:51;;;;;;;15.30;5.10;;;;;;;13.89;81.28;101378.34;4909092;29;20104;-54
2022/02/24 01:35:16;;;;;;;16.90;3.80;;;;;;;13.90;80.67;101363.84;4913698;29;20056;-54
2022/02/24 01:37:42;;;;;;;18.15;4.68;;;;;;;13.82;80.13;101355.16;4903893;29;20070;-47
2022/02/24 01:40:08;;;;;;;17.20;3.47;;;;;;;13.94;78.32;101347.31;4914855;29;20057;-48
2022/02/24 01:42:34;;;;;;;9.90;2.97;;;;;;;13.79;80.89;101340.25;4907861;29;20036;-51
2022/02/24 01:45:00;;;;;;;20.40;5.00;;;;;;;13.76;80.44;101357.63;4907631;29;20049;-49
2022/02/24 01:47:26;;;;;;;19.83;5.37;;;;;;;13.86;80.50;101335.72;4914613;29;20048;-50
2022/02/24 01:49:52;;;;;;;20.92;5.75;;;;;;;14.10;77.50;101329.94;4903337;29;20045;-52
2022/02/24 01:52:18;;;;;;;18.90;4.50;;;;;;;14.07;82.60;101320.44;4912855;29;20137;-54
2022/02/24 01:54:46;;;;;;;18.30;3.88;;;;;;;13.84;91.54;101310.91;4909093;29;20056;-54
2022/02/24 01:57:12;;;;;;;18.17;5.10;;;;;;;13.65;94.47;101300.97;4905998;29;20037;-55
2022/02/24 01:59:38;;;;;;;18.20;4.27;;;;;;;13.90;92.00;101293.13;4915356;29;20076;-53
2022/02/24 02:02:04;;;;;;;15.05;4.72;;;;;;;14.23;87.70;101302.22;4902376;29;20089;-51
2022/02/24 02:04:31;;;;;;;18.65;5.35;;;;;;;13.82;92.56;101296.81;4911022;29;20064;-52
2022/02/24 02:06:58;;;;;;;24.27;5.65;;;;;;;13.71;88.50;101292.06;4910551;29;20043;-51
2022/02/24 02:09:26;;;;;;;14.85;4.90;;;;;;;13.77;86.80;101291.25;4904145;29;20049;-53
2022/02/24 02:11:51;;;;;;;23.23;5.32;;;;;;;13.96;81.94;101291.47;4915491;29;20112;-53
2022/02/24 02:14:17;;;;;;;16.90;4.60;;;;;;;13.71;85.42;101284.00;4905581;29;20033;-52
2022/02/24 02:16:45;;;;;;;17.58;5.25;;;;;;;13.77;83.76;101286.72;4909712;29;20272;-52
2022/02/24 02:19:10;;;;;;;22.85;4.60;;;;;;;13.70;85.04;101280.47;4912105;29;20049;-52
2022/02/24 02:21:36;;;;;;;16.63;4.93;;;;;;;13.62;86.17;101276.16;4902594;29;20045;-53
2022/02/24 02:24:02;;;;;;;17.17;4.33;;;;;;;13.56;88.13;101276.97;4914841;29;20092;-52
2022/02/24 02:26:28;;;;;;;25.65;4.72;;;;;;;13.93;85.38;101265.00;4906459;29;20040;-51
2022/02/24 02:28:53;;;;;;;16.67;4.10;;;;;;;13.90;85.81;101269.75;4908550;29;20114;-51
2022/02/24 02:31:20;;;;;;;11.97;4.10;;;;;;;13.91;86.04;101266.03;4912926;29;20283;-51
2022/02/24 02:33:45;;;;;;;17.10;5.10;;;;;;;14.15;83.62;101257.53;4902837;29;20037;-51
2022/02/24 02:36:11;;;;;;;19.57;4.17;;;;;;;14.05;81.81;101261.47;4913586;29;20052;-54
2022/02/24 02:38:36;;;;;;;10.27;4.40;;;;;;;13.72;84.08;101259.59;4907616;29;20282;-51
2022/02/24 02:41:02;;;;;;;16.17;4.43;;;;;;;14.01;80.87;101254.88;4907141;29;20072;-51
2022/02/24 02:43:27;;;;;;;16.47;6.07;;;;;;;13.57;80.72;101253.63;4913946;29;20036;-51
2022/02/24 02:45:53;;;;;;;17.27;5.23;;;;;;;13.83;81.33;101260.84;4902841;29;20280;-50
2022/02/24 02:48:18;;;;;;;20.83;6.20;;;;;;;14.05;77.17;101252.56;4912829;29;20057;-54
2022/02/24 02:50:44;;;;;;;16.40;4.90;;;;;;;14.02;76.51;101247.59;4908366;29;20069;-51
2022/02/24 02:53:09;;;;;;;10.80;3.97;;;;;;;14.02;75.85;101253.81;4906276;29;20041;-52
2022/02/24 02:55:35;;;;;;;12.30;4.40;;;;;;;14.26;73.19;101237.22;4914536;29;20061;-51
2022/02/24 02:58:00;;;;;;;19.27;4.67;;;;;;;14.12;73.70;101233.75;4902490;29;20109;-49
2022/02/24 03:00:26;;;;;;;22.42;5.40;;;;;;;14.38;71.35;101238.25;4911470;29;20682;-46
2022/02/24 03:02:52;;;;;;;9.75;4.43;;;;;;;13.91;73.11;101230.25;4899545;29;20052;-52
2022/02/24 03:05:18;;;;;;;13.13;3.95;;;;;;;13.83;74.47;101225.91;4912315;29;20041;-52
2022/02/24 03:07:43;;;;;;;14.77;3.47;;;;;;;13.74;73.98;101230.69;4902632;29;20040;-51
2022/02/24 03:10:09;;;;;;;16.17;3.97;;;;;;;13.99;71.90;101221.97;4913888;29;20040;-49
2022/02/24 03:12:36;;;;;;;31.97;6.17;;;;;;;13.69;73.14;101213.50;4906692;29;20039;-52
2022/02/24 03:15:13;;;;;;;10.88;3.13;;;;;;;13.83;71.90;101200.91;4907141;29;20113;-52
2022/02/24 03:17:43;;;;;;;16.80;3.72;;;;;;;13.91;73.82;101197.97;4914408;29;20036;-51
2022/02/24 03:20:10;;;;;;;15.98;2.70;;;;;;;13.41;78.66;101201.06;4903477;29;20065;-54
2022/02/24 03:22:36;;;;;;;16.83;3.10;;;;;;;13.52;78.20;101189.72;4910510;29;20124;-51
2022/02/24 03:25:03;;;;;;;18.50;3.63;;;;;;;13.78;77.18;101204.19;4912848;29;20044;-49
2022/02/24 03:27:29;;;;;;;11.25;3.13;;;;;;;14.29;72.09;101196.44;4906836;29;20117;-53
2022/02/24 03:29:54;;;;;;;20.38;3.90;;;;;;;13.98;72.65;101181.84;4918105;29;20040;-51
2022/02/24 03:32:20;;;;;;;13.60;3.40;;;;;;;14.08;74.27;101176.03;4908130;29;20035;-53
2022/02/24 03:34:45;;;;;;;10.47;2.90;;;;;;;14.05;71.91;101183.50;4912618;29;20280;-52
2022/02/24 03:37:11;;;;;;;11.35;3.75;;;;;;;14.16;72.23;101179.31;4914511;29;20048;-51
2022/02/24 03:39:37;;;;;;;24.33;5.23;;;;;;;14.13;72.21;101189.66;4905924;29;20044;-47
2022/02/24 03:42:04;;;;;;;16.20;3.33;;;;;;;14.15;72.20;101160.69;4918197;29;20057;-51
2022/02/24 03:44:29;;;;;;;;;;;;;;;14.10;74.81;101160.50;4909341;29;20096;-49
2022/02/24 03:46:54;;;;;;;18.93;4.20;;;;;;;14.34;75.90;101148.25;4911468;29;19970;-53
2022/02/24 03:49:20;;;;;;;15.27;4.00;;;;;;;14.12;74.62;101163.81;4915228;29;20036;-54
2022/02/24 03:51:45;;;;;;;27.70;4.73;;;;;;;14.03;75.56;101150.59;4905382;29;20045;-48
2022/02/24 03:54:11;;;;;;;13.87;4.60;;;;;;;14.29;72.03;101145.34;4916470;29;20325;-50
2022/02/24 03:56:36;;;;;;;17.83;4.00;;;;;;;14.31;73.36;101137.91;4909356;29;20177;-51
2022/02/24 03:59:02;;;;;;;12.48;3.15;;;;;;;14.29;73.49;101134.56;4909827;29;20105;-47
2022/02/24 04:01:29;;;;;;;16.70;3.35;;;;;;;14.48;72.46;101132.84;4916022;29;20107;-50
2022/02/24 04:03:54;;;;;;;13.83;3.43;;;;;;;14.46;70.51;101124.19;4904988;29;20045;-51
2022/02/24 04:06:20;;;;;;;10.57;2.40;;;;;;;14.64;68.65;101126.16;4915449;29;20037;-51
2022/02/24 04:08:46;;;;;;;13.70;3.50;;;;;;;13.95;71.90;101125.81;4910270;29;20036;-52
2022/02/24 04:11:11;;;;;;;16.00;4.67;;;;;;;14.29;70.16;101124.66;4904435;29;20080;-53
2022/02/24 04:13:37;;;;;;;12.07;3.70;;;;;;;14.44;69.25;101126.25;4905764;29;20041;-52
2022/02/24 04:16:03;;;;;;;23.07;5.80;;;;;;;14.39;68.84;101124.19;4917623;29;20048;-53
2022/02/24 04:18:28;;;;;;;16.73;3.35;;;;;;;14.56;67.08;101124.53;4908398;29;20059;-51
2022/02/24 04:20:53;;;;;;;20.70;3.83;;;;;;;14.72;66.38;101120.53;4911347;29;20040;-53
2022/02/24 04:23:19;;;;;;;14.37;3.43;;;;;;;14.62;66.95;101106.69;4898383;29;20048;-47
2022/02/24 04:25:44;;;;;;;17.55;4.93;;;;;;;14.63;67.12;101124.50;4905027;29;20041;-47
2022/02/24 04:28:10;;;;;;;15.93;5.43;;;;;;;15.16;64.80;101106.34;4916892;29;20052;-49
2022/02/24 04:30:35;;;;;;;20.30;5.50;;;;;;;14.33;67.76;101104.34;4909228;29;20044;-49
2022/02/24 04:33:00;;;;;;;27.37;5.00;;;;;;;15.69;61.31;101107.75;4909224;29;20033;-54
2022/02/24 04:35:26;;;;;;;14.37;4.53;;;;;;;14.21;69.15;101100.69;4914383;29;20040;-48
2022/02/24 04:37:51;;;;;;;16.30;4.53;;;;;;;14.61;65.68;101096.97;4904818;29;20123;-51
2022/02/24 04:40:17;;;;;;;22.77;4.00;;;;;;;15.30;62.76;101102.53;4915868;29;20037;-51
2022/02/24 04:42:43;;;;;;;16.27;3.63;;;;;;;14.92;63.54;101111.50;4909659;29;20092;-52
2022/02/24 04:45:09;;;;;;;15.07;3.38;;;;;;;14.89;62.26;101087.72;4908680;29;20113;-47
2022/02/24 04:47:35;;;;;;;13.15;3.35;;;;;;;15.20;61.02;101105.72;4916091;29;20048;-51
2022/02/24 04:50:03;;;;;;;20.60;4.63;;;;;;;15.19;62.49;101078.97;4904363;29;20125;-53
2022/02/24 04:52:29;;;;;;;17.00;4.57;;;;;;;16.15;57.34;101086.75;4920015;29;20028;-50
2022/02/24 04:54:54;;;;;;;13.95;3.95;;;;;;;16.46;55.38;101084.88;4910411;29;20049;-50
2022/02/24 04:57:20;;;;;;;18.33;5.17;;;;;;;15.10;60.77;101091.09;4914207;29;20044;-50
2022/02/24 04:59:45;;;;;;;12.60;4.07;;;;;;;15.08;63.13;101082.41;4919607;29;20074;-52
2022/02/24 05:02:11;;;;;;;20.47;4.10;;;;;;;14.59;66.36;101085.59;4905017;29;20045;-53
2022/02/24 05:04:36;;;;;;;16.57;3.80;;;;;;;14.77;64.24;101085.72;4912910;29;20033;-47
2022/02/24 05:07:02;;;;;;;19.77;4.43;;;;;;;14.97;64.57;101079.34;4911467;29;20117;-50
2022/02/24 05:09:28;;;;;;;14.00;4.63;;;;;;;14.79;66.17;101063.16;4903653;29;20276;-52
2022/02/24 05:11:53;;;;;;;22.63;5.90;;;;;;;15.27;63.19;101067.09;4918179;29;20048;-52
2022/02/24 05:14:19;;;;;;;18.47;4.53;;;;;;;14.54;67.82;101042.38;4905808;29;20282;-47
2022/02/24 05:16:45;;;;;;;15.07;4.47;;;;;;;14.69;66.52;101069.78;4910767;29;20048;-47
2022/02/24 05:19:10;;;;;;;17.47;5.47;;;;;;;15.04;66.70;101047.81;4912361;29;20083;-51
2022/02/24 05:21:36;;;;;;;21.35;4.80;;;;;;;14.95;66.78;101045.63;4904868;29;20033;-49
2022/02/24 05:24:01;;;;;;;17.83;4.15;;;;;;;14.71;67.45;101038.13;4918619;29;20072;-50
2022/02/24 05:26:27;;;;;;;14.63;3.78;;;;;;;14.63;67.74;101032.97;4919589;29;20033;-48
2022/02/24 05:28:53;;;;;;;13.33;4.40;;;;;;;14.43;69.76;101033.94;4910380;29;20041;-50
2022/02/24 05:31:18;;;;;;;16.33;5.03;;;;;;;14.71;67.77;101019.28;4912935;29;20101;-52
2022/02/24 05:33:44;;;;;;;9.95;4.50;;;;;;;14.53;68.79;101021.84;4903707;29;20040;-53
2022/02/24 05:36:09;;;;;;;17.50;3.80;;;;;;;14.20;72.75;101004.91;4915886;29;20067;-52
2022/02/24 05:38:35;;;;;;;18.80;3.67;;;;;;;14.95;69.52;101006.03;4907222;29;20048;-48
2022/02/24 05:41:02;;;;;;;13.90;3.28;;;;;;;14.59;72.67;100991.41;4909233;29;20041;-52
2022/02/24 05:43:28;;;;;;;20.65;4.80;;;;;;;14.68;70.01;100994.66;4914100;29;20068;-47
2022/02/24 05:45:55;;;;;;;12.43;4.37;;;;;;;14.33;72.85;101004.00;4919221;29;20043;-54
2022/02/24 05:48:21;;;;;;;22.02;4.45;;;;;;;14.41;72.06;100992.97;4914091;29;20104;-52
2022/02/24 05:50:47;;;;;;;22.60;4.67;;;;;;;15.10;66.96;100992.22;4908593;29;20040;-48
2022/02/24 05:53:12;;;;;;;18.10;3.97;;;;;;;15.15;65.11;100991.56;4907845;29;20052;-51
2022/02/24 05:55:38;;;;;;;11.33;4.10;;;;;;;14.98;67.47;100988.63;4915173;29;20120;-52
2022/02/24 05:58:04;;;;;;;21.20;5.70;;;;;;;14.36;72.71;100983.91;4887294;29;20307;-53
2022/02/24 06:00:29;;;;;;;22.33;5.78;;;;;;;14.48;72.50;100966.84;4913172;29;20040;-49
2022/02/24 06:02:54;;;;;;;21.55;4.70;;;;;;;14.72;72.09;100966.28;4908596;29;20049;-49
2022/02/24 06:05:20;;;;;;;15.87;3.90;;;;;;;14.49;71.85;100979.25;4919191;29;20100;-49
2022/02/24 06:07:46;;;;;;;23.20;4.95;;;;;;;14.41;73.55;100973.28;4918911;29;20044;-48
2022/02/24 06:10:13;;;;;;;;;;;;;;;14.23;72.38;100957.91;4915723;29;20044;-51
2022/02/24 06:12:39;;;;;;;14.68;3.97;;;;;;;14.67;70.21;100977.66;4906972;29;19916;-50
2022/02/24 06:15:07;;;;;;;11.82;4.28;;;;;;;14.33;73.75;100974.41;4908540;29;20069;-48
2022/02/24 06:17:32;;;;;;;25.40;5.93;;;;;;;14.44;73.25;100965.63;4914310;29;20036;-51
2022/02/24 06:19:58;;;;;;;19.17;4.67;;;;;;;14.94;68.10;100982.03;4903090;29;20057;-52
2022/02/24 06:22:23;;;;;;;13.40;3.10;;;;;;;14.24;74.15;100964.94;4913852;29;20032;-51
2022/02/24 06:24:51;;;;;;;13.97;4.67;;;;;;;14.52;72.90;100958.31;4892003;29;20036;-49
2022/02/24 06:27:21;;;;;;;22.70;5.82;;;;;;;14.82;71.90;100949.63;4906849;29;20280;-52
2022/02/24 06:29:47;;;;;;;12.02;4.30;;;;;;;14.83;70.23;100954.78;4915481;29;20041;-51
2022/02/24 06:32:16;;;;;;;14.27;3.28;;;;;;;14.94;68.77;100949.72;4903524;29;20095;-52
2022/02/24 06:34:43;;;;;;;15.05;4.50;;;;;;;15.34;65.41;100954.72;4911533;29;20101;-49
2022/02/24 06:37:09;;;;;;;13.68;3.88;;;;;;;15.24;66.18;100963.31;4910645;29;20040;-54
2022/02/24 06:39:35;;;;;;;15.30;4.70;;;;;;;15.23;65.72;100944.66;4888375;29;20052;-50
2022/02/24 06:42:02;;;;;;;17.70;3.72;;;;;;;15.40;65.41;100944.88;4900814;29;20105;-50
2022/02/24 06:44:27;;;;;;;13.90;3.90;;;;;;;15.74;62.78;100934.53;4913304;29;20041;-51
2022/02/24 06:46:53;;;;;;;16.20;4.20;;;;;;;15.53;63.50;100927.72;4908745;29;20043;-52
2022/02/24 06:49:19;;;;;;;14.88;4.50;;;;;;;15.42;64.22;100932.00;4918665;29;20037;-50
2022/02/24 06:51:45;;;;;;;16.40;4.20;;;;;;;14.90;66.69;100925.94;4903235;29;20032;-52
2022/02/24 06:54:11;;;;;;;13.15;3.53;;;;;;;15.40;63.60;100932.25;4876811;29;20074;-50
2022/02/24 06:56:36;;;;;;;18.80;3.40;;;;;;;14.90;66.01;100936.72;4869179;29;20253;-49
2022/02/24 06:59:03;;;;;;;11.83;2.93;;;;;;;15.45;63.05;100936.94;4872424;29;20046;-50
2022/02/24 07:01:30;;;;;;;11.48;3.42;;;;;;;15.26;64.97;100928.06;4879277;29;20277;-51
2022/02/24 07:03:55;;;;;;;10.45;2.60;;;;;;;15.04;65.17;100925.78;4869081;29;20087;-48
2022/02/24 07:06:21;;;;;;;12.32;3.17;;;;;;;15.38;63.35;100917.34;4884536;29;20037;-51
2022/02/24 07:08:47;;;;;;;9.03;2.47;;;;;;;15.10;63.55;100927.59;4884471;29;20030;-47
2022/02/24 07:11:12;;;;;;;12.40;2.43;;;;;;;15.13;63.60;100918.25;4873494;29;20042;-52
2022/02/24 07:13:38;;;;;;;12.18;2.42;;;;;;;15.52;62.59;100908.06;4863943;29;20125;-51
2022/02/24 07:16:03;;;;;;;13.00;4.23;;;;;;;15.32;67.50;100917.19;4868833;29;20071;-50
2022/02/24 07:18:29;;;;;;;12.90;3.00;;;;;;;15.00;69.96;100903.06;4878003;29;20053;-53
2022/02/24 07:20:55;;;;;;;26.83;3.90;;;;;;;14.90;70.68;100900.88;4874510;29;20070;-53
2022/02/24 07:23:24;;;;;;;11.85;3.45;;;;;;;15.16;69.43;100913.25;4872458;29;20046;-52
2022/02/24 07:25:51;;;;;;;11.32;2.60;;;;;;;14.47;72.84;100900.59;4880695;29;20041;-49
2022/02/24 07:28:17;;;;;;;20.02;3.50;;;;;;;13.91;80.89;100892.34;4869598;29;20029;-49
2022/02/24 07:30:42;;;;;;;15.13;3.20;;;;;;;14.62;73.48;100902.16;4876989;29;20200;-53
2022/02/24 07:33:08;;;;;;;12.43;3.17;;;;;;;15.18;71.32;100897.69;4875774;29;20037;-50
2022/02/24 07:35:33;;;;;;;13.27;3.80;;;;;;;15.14;86.30;100892.97;4870029;29;20315;-49
2022/02/24 07:37:59;;;;;;;19.27;2.88;;;;;;;14.13;100.00;100894.69;4880684;29;20052;-50
2022/02/24 07:40:25;;;;;;;13.30;3.67;;;;;;;13.33;100.00;100891.34;4870305;29;20105;-50
2022/02/24 07:42:50;;;;;;;13.07;4.20;;;;;;;14.63;100.00;100888.44;4875873;29;20052;-51
2022/02/24 07:45:17;;;;;;;16.00;4.70;;;;;;;13.23;100.00;100880.22;4876535;29;20064;-52
2022/02/24 07:47:42;;;;;;;14.73;4.65;;;;;;;13.02;100.00;100882.16;4883651;29;20064;-53
2022/02/24 07:50:13;;;;;;;16.55;3.38;;;;;;;13.09;100.00;100876.75;4881012;29;20048;-53
2022/02/24 07:52:46;;;;;;;12.88;4.05;;;;;;;13.32;100.00;100868.19;4871658;29;20030;-52
2022/02/24 07:55:13;;;;;;;11.75;4.40;;;;;;;13.28;100.00;100869.66;4895509;29;20091;-49
2022/02/24 07:57:40;;;;;;;15.85;5.13;;;;;;;13.05;100.00;100862.94;4916461;29;20047;-54
2022/02/24 08:00:13;;;;;;;17.23;3.08;;;;;;;13.34;100.00;100871.50;4905289;29;20057;-53
2022/02/24 08:02:40;;;;;;;12.18;2.78;;;;;;;13.47;100.00;100859.09;4914366;29;20033;-51
2022/02/24 08:05:07;;;;;;;11.25;3.10;;;;;;;13.85;100.00;100858.25;4911954;29;20040;-53
2022/02/24 08:07:32;;;;;;;12.00;2.13;;;;;;;13.58;100.00;100858.38;4920883;29;20036;-52
2022/02/24 08:09:57;;;;;;;12.03;2.77;;;;;;;14.02;100.00;100844.28;4919285;29;20044;-49
2022/02/24 08:15:13;;;;;;;11.27;2.72;;;;;;;13.52;100.00;100845.81;4910493;29;20075;-51
2022/02/24 08:17:38;;;;;;;10.13;2.83;;;;;;;13.77;100.00;100837.84;4915958;29;20036;-50
2022/02/24 08:20:07;;;;;;;13.63;2.83;;;;;;;13.50;100.00;100837.16;4904825;29;20045;-50
2022/02/24 08:22:40;;;;;;;14.63;3.08;;;;;;;13.77;100.00;100840.53;4915138;29;20040;-51
2022/02/24 08:25:08;;;;;;;10.38;2.70;;;;;;;13.84;100.00;100826.22;4911695;29;20155;-49
2022/02/24 08:27:37;;;;;;;12.10;3.05;;;;;;;13.78;100.00;100825.19;4906986;29;20053;-52
2022/02/24 08:30:06;;;;;;;13.15;4.38;;;;;;;13.56;100.00;100824.72;4916939;29;20048;-51
2022/02/24 08:32:32;;;;;;;10.13;2.38;;;;;;;13.67;100.00;100815.97;4906671;29;20031;-50
2022/02/24 08:34:58;;;;;;;5.60;2.42;;;;;;;13.86;100.00;100816.06;4911330;29;20048;-51
2022/02/24 08:37:25;;;;;;;12.98;3.33;;;;;;;13.81;100.00;100807.84;4913674;29;20048;-52
2022/02/24 08:39:50;;;;;;;;;;;;;;;14.28;100.00;100813.66;4905252;29;20033;-51
2022/02/24 08:42:17;;;;;;;13.20;2.53;;;;;;;13.85;100.00;100817.94;4915949;29;19994;-51
2022/02/24 08:44:43;;;;;;;13.20;2.20;;;;;;;13.91;100.00;100816.22;4903986;29;20036;-50
2022/02/24 08:47:11;;;;;;;10.77;2.65;;;;;;;14.04;96.77;100796.47;4912717;29;20073;-52
2022/02/24 08:49:37;;;;;;;14.10;2.75;;;;;;;14.54;92.78;100784.84;4911067;29;20041;-56
2022/02/24 08:52:03;;;;;;;12.98;2.50;;;;;;;14.40;91.90;100789.53;4912289;29;20040;-49
2022/02/24 08:54:29;;;;;;;9.35;2.47;;;;;;;14.58;87.60;100787.91;4910232;29;20049;-48
2022/02/24 08:56:55;;;;;;;10.77;2.30;;;;;;;14.69;82.31;100781.78;4912899;29;20063;-51
2022/02/24 08:59:20;;;;;;;11.03;2.73;;;;;;;14.38;83.48;100788.94;4911226;29;20048;-51
2022/02/24 09:01:46;;;;;;;15.05;2.50;;;;;;;14.45;84.38;100780.81;4912113;29;20048;-52
2022/02/24 09:04:13;;;;;;;8.90;2.30;;;;;;;14.45;86.23;100773.53;4911775;29;20056;-52
2022/02/24 09:06:38;;;;;;;11.68;2.40;;;;;;;14.30;86.55;100760.47;4911702;29;20037;-50
2022/02/24 09:09:04;;;;;;;12.10;2.70;;;;;;;14.19;87.96;100758.50;4908829;29;20056;-53
2022/02/24 09:11:29;;;;;;;21.00;3.20;;;;;;;14.03;85.40;100760.72;4903981;29;20077;-50
2022/02/24 09:13:54;;;;;;;9.97;2.83;;;;;;;14.04;88.79;100753.44;4915981;29;20068;-52
2022/02/24 09:16:20;;;;;;;10.87;3.00;;;;;;;14.41;83.90;100742.75;4909829;29;20041;-52
2022/02/24 09:18:46;;;;;;;11.87;3.17;;;;;;;14.20;85.30;100734.06;4916960;29;20040;-48
2022/02/24 09:21:11;;;;;;;13.48;3.42;;;;;;;14.54;81.41;100730.22;4900299;29;20475;-52
2022/02/24 09:23:37;;;;;;;12.73;3.40;;;;;;;14.10;86.29;100733.78;4912879;29;20056;-51
2022/02/24 09:26:02;;;;;;;8.53;2.67;;;;;;;14.24;86.02;100736.31;4908189;29;20044;-51
2022/02/24 09:28:28;;;;;;;15.17;3.83;;;;;;;14.44;83.11;100725.34;4910437;29;20024;-51
2022/02/24 09:30:54;;;;;;;12.37;4.03;;;;;;;14.19;79.40;100732.44;4912018;29;20068;-51
2022/02/24 09:33:20;;;;;;;8.90;2.63;;;;;;;14.85;76.36;100717.66;4907527;29;20040;-49
2022/02/24 09:35:45;;;;;;;17.40;2.88;;;;;;;14.74;74.51;100725.44;4903520;29;20032;-49
2022/02/24 09:38:11;;;;;;;18.17;3.47;;;;;;;14.87;74.35;100719.06;4916177;29;20067;-53
2022/02/24 09:40:36;;;;;;;9.97;3.13;;;;;;;14.89;73.63;100697.28;4905988;29;20037;-53
2022/02/24 09:43:05;;;;;;;15.63;3.40;;;;;;;14.83;76.51;100690.94;4910618;29;20072;-52
2022/02/24 09:45:30;;;;;;;16.70;4.10;;;;;;;15.43;69.96;100683.88;4908960;29;20041;-52
2022/02/24 09:47:56;;;;;;;16.33;3.80;;;;;;;15.48;68.78;100677.81;4908480;29;20491;-48
2022/02/24 09:50:26;;;;;;;17.95;3.65;;;;;;;14.98;71.41;100671.69;4907869;29;20101;-49
2022/02/24 09:52:52;;;;;;;16.03;3.13;;;;;;;14.95;74.29;100672.13;4910764;29;20036;-52
2022/02/24 09:55:18;;;;;;;16.77;2.73;;;;;;;15.22;71.49;100666.34;4909520;29;20283;-52
2022/02/24 09:57:43;;;;;;;15.40;3.10;;;;;;;14.76;72.52;100657.91;4906453;29;20045;-52
2022/02/24 10:00:09;;;;;;;14.80;3.50;;;;;;;14.93;70.70;100662.66;4910746;29;20040;-52
2022/02/24 10:02:35;;;;;;;16.40;3.13;;;;;;;14.70;74.02;100667.69;4904933;29;20044;-49
2022/02/24 10:05:10;;;;;;;14.53;2.80;;;;;;;15.22;69.50;100652.88;4909795;29;20040;-50
2022/02/24 10:07:38;;;;;;;17.83;3.20;;;;;;;15.21;69.55;100629.69;4913028;29;20299;-51
2022/02/24 10:10:26;;;;;;;11.30;3.53;;;;;;;17.00;57.69;100626.75;4903133;29;20313;-51
2022/02/24 10:13:11;;;;;;;5.30;1.70;;;;;;;17.59;55.16;100629.06;4910629;29;20276;-53
2022/02/24 10:15:52;;;;;;;13.83;2.73;;;;;;;18.31;51.60;100626.50;4899123;29;20300;-51
2022/02/24 10:18:20;;;;;;;9.30;2.43;;;;;;;18.33;51.28;100599.19;4902796;29;20361;-53
2022/02/24 10:20:50;;;;;;;10.07;2.47;;;;;;;18.40;49.73;100590.88;4912005;29;20327;-49
2022/02/24 10:23:18;;;;;;;11.60;2.97;;;;;;;18.52;48.81;100628.63;4899873;29;20321;-47
2022/02/24 10:25:52;;;;;;;9.17;2.97;;;;;;;18.67;48.36;100587.34;4910053;29;20555;-49
2022/02/24 10:28:33;;;;;;;12.93;2.70;;;;;;;19.39;46.95;100587.16;4907050;29;20308;-52
2022/02/24 10:31:07;;;;;;;9.17;2.53;;;;;;;18.95;46.75;100612.53;4912386;29;20274;-48
2022/02/24 10:33:34;;;;;;;11.80;3.43;;;;;;;19.05;46.70;100583.66;4905114;29;20279;-51
2022/02/24 10:36:10;;;;;;;10.10;3.05;;;;;;;19.43;46.34;100564.66;4918637;29;20279;-52
2022/02/24 10:38:36;;;;;;;9.73;2.67;;;;;;;19.76;45.17;100592.53;4908718;29;20045;-54
2022/02/24 10:41:02;;;;;;;8.23;2.53;;;;;;;20.34;44.33;100547.44;4913121;29;20268;-52
2022/02/24 10:43:31;;;;;;;18.08;2.63;;;;;;;20.47;43.40;100560.50;4902635;29;20319;-47
2022/02/24 10:45:57;;;;;;;9.67;3.37;;;;;;;21.01;41.64;100552.97;4918417;29;20073;-51
2022/02/24 10:48:22;;;;;;;11.43;3.27;;;;;;;20.83;41.74;100542.66;4906836;29;20279;-48
2022/02/24 10:50:51;;;;;;;11.30;2.80;;;;;;;20.42;41.58;100555.06;4914905;29;20389;-50
2022/02/24 10:53:22;;;;;;;11.17;2.87;;;;;;;20.23;42.71;100524.91;4913555;29;20351;-52
2022/02/24 10:56:00;;;;;;;11.50;2.83;;;;;;;20.30;42.66;100535.50;4906677;29;20080;-53
2022/02/24 10:58:28;;;;;;;12.63;2.50;;;;;;;20.09;42.61;100516.44;4906783;29;20060;-53
2022/02/24 11:01:14;;;;;;;11.23;2.57;;;;;;;20.37;42.82;100544.19;4920210;29;20393;-54
2022/02/24 11:03:43;;;;;;;12.87;2.93;;;;;;;20.73;41.64;100525.19;4915417;29;20036;-50
2022/02/24 11:06:12;;;;;;;17.63;3.40;;;;;;;22.29;39.61;100522.91;4919696;29;20085;-51
2022/02/24 11:08:38;;;;;;;13.43;2.10;;;;;;;20.94;39.95;100522.50;4908329;29;20061;-51
2022/02/24 11:11:04;;;;;;;;;;;;;;;19.87;43.10;100503.88;4916679;29;20140;-50
2022/02/24 11:13:31;;;;;;;11.67;2.27;;;;;;;20.43;41.73;100537.69;4911367;29;20014;-51
2022/02/24 11:15:58;;;;;;;9.77;1.70;;;;;;;19.59;42.43;100511.31;4912857;29;20048;-56